Time;durP1;ratioP1;P1;durP2;ratioP2;P2;SDS_P1;SDS_P2;PMS_P1;PMS_P2;Temp;Humidity;BMP_temperature;BMP_pressure;BME280_temperature;BME280_humidity;BME280_pressure;Samples;Min_cycle;Max_cycle;Signal;HPM_P1;HPM_P2
2022/05/13 00:00:31;;;;;;;4.50;4.30;;;;;;;11.40;80.63;101402.13;6087411;23;20021;-73
2022/05/13 00:02:57;;;;;;;4.60;4.40;;;;;;;11.25;81.23;101387.91;6081744;23;20018;-75
2022/05/13 00:05:24;;;;;;;4.75;4.53;;;;;;;11.10;82.12;101365.78;6103843;23;20027;-75
2022/05/13 00:07:50;;;;;;;4.30;4.10;;;;;;;11.21;82.43;101383.72;6079719;23;20020;-74
2022/05/13 00:10:18;;;;;;;4.28;4.07;;;;;;;11.16;82.37;101381.28;6116569;23;20013;-74
2022/05/13 00:12:44;;;;;;;5.85;5.55;;;;;;;10.61;83.21;101303.13;6082812;23;20024;-74
2022/05/13 00:15:14;;;;;;;4.30;4.10;;;;;;;9.52;83.06;101160.72;6105937;23;20085;-75
2022/05/13 00:17:41;;;;;;;6.43;6.03;;;;;;;9.91;82.94;101212.44;6082156;23;20034;-76
2022/05/13 00:20:11;;;;;;;4.30;4.10;;;;;;;10.48;84.01;101294.03;6107862;23;20021;-76
2022/05/13 00:22:50;;;;;;;5.80;5.57;;;;;;;10.68;83.76;101327.31;6081264;23;20561;-75
2022/05/13 00:25:20;;;;;;;4.22;4.03;;;;;;;10.86;83.89;101346.69;6111870;23;20018;-76
2022/05/13 00:27:47;;;;;;;5.80;5.57;;;;;;;10.87;83.19;101335.28;6079429;23;20018;-74
2022/05/13 00:30:14;;;;;;;4.30;4.10;;;;;;;11.38;82.42;101396.94;6086561;23;20028;-76
2022/05/13 00:32:41;;;;;;;5.75;5.45;;;;;;;11.45;82.06;101395.75;6119307;23;20403;-73
2022/05/13 00:35:08;;;;;;;4.60;4.40;;;;;;;11.20;81.69;101345.22;6071901;23;20034;-75
2022/05/13 00:37:35;;;;;;;5.70;5.47;;;;;;;11.20;81.47;101360.97;6101036;23;20029;-74
2022/05/13 00:40:04;;;;;;;5.25;4.95;;;;;;;11.26;81.54;101360.69;6082983;23;20021;-76
2022/05/13 00:42:31;;;;;;;5.10;4.88;;;;;;;10.72;80.75;101285.13;6094563;23;20028;-76
2022/05/13 00:44:58;;;;;;;4.65;4.45;;;;;;;10.65;81.15;101288.09;6079089;23;20517;-77
2022/05/13 00:47:25;;;;;;;4.20;4.00;;;;;;;11.22;81.54;101390.66;6090933;23;20065;-75
2022/05/13 00:49:54;;;;;;;4.38;4.18;;;;;;;11.15;81.94;101385.69;6108264;23;20018;-76
2022/05/13 00:52:20;;;;;;;4.70;4.50;;;;;;;10.87;81.56;101341.38;6096564;23;20009;-76
2022/05/13 00:54:47;;;;;;;5.05;4.85;;;;;;;11.02;82.29;101375.75;6099468;23;20006;-76
2022/05/13 00:57:15;;;;;;;4.40;4.20;;;;;;;10.73;82.17;101338.50;6108118;23;20065;-75
2022/05/13 00:59:45;;;;;;;5.88;5.57;;;;;;;10.30;81.73;101258.94;6094393;23;20010;-76
2022/05/13 01:02:11;;;;;;;4.50;4.30;;;;;;;10.39;81.92;101287.41;6070801;23;20077;-76
2022/05/13 01:04:38;;;;;;;5.57;5.38;;;;;;;10.76;81.50;101349.72;6099185;23;20050;-75
2022/05/13 01:07:18;;;;;;;4.15;3.95;;;;;;;10.51;80.93;101321.00;6068774;23;20082;-76
2022/05/13 01:09:49;;;;;;;5.57;5.38;;;;;;;10.52;81.13;101334.97;6068509;23;20749;-75
2022/05/13 01:12:21;;;;;;;4.65;4.45;;;;;;;10.73;81.44;101383.13;6099535;23;20021;-75
2022/05/13 01:15:01;;;;;;;5.10;4.90;;;;;;;10.68;81.14;101378.03;6059380;23;20105;-76
2022/05/13 01:20:19;;;;;;;4.10;3.90;;;;;;;10.06;81.59;101297.47;6095655;23;20090;-74
2022/05/13 01:22:50;;;;;;;6.20;5.90;;;;;;;10.49;82.40;101380.59;6065123;23;20137;-74
2022/05/13 01:25:20;;;;;;;4.10;3.90;;;;;;;10.27;81.85;101348.25;6099199;23;20022;-74
2022/05/13 01:27:48;;;;;;;6.03;5.72;;;;;;;9.66;81.59;101258.00;6074829;23;20024;-76
2022/05/13 01:30:18;;;;;;;4.25;4.05;;;;;;;10.02;82.09;101317.72;6098774;23;20028;-76
2022/05/13 01:32:45;;;;;;;6.00;5.70;;;;;;;9.28;82.52;101201.84;6074899;23;20344;-76
2022/05/13 01:35:13;;;;;;;4.40;4.20;;;;;;;10.05;82.00;101333.34;6099153;23;20088;-75
2022/05/13 01:37:39;;;;;;;5.72;5.50;;;;;;;9.79;81.79;101314.25;6062110;23;20026;-74
2022/05/13 01:40:07;;;;;;;4.25;4.05;;;;;;;10.22;82.53;101390.38;6074411;23;20513;-74
2022/05/13 01:42:34;;;;;;;5.38;5.18;;;;;;;9.94;82.35;101346.91;6093486;23;20030;-75
2022/05/13 01:45:01;;;;;;;4.28;4.07;;;;;;;10.13;82.63;101388.97;6072947;23;20032;-75
2022/05/13 01:47:29;;;;;;;5.07;4.78;;;;;;;10.12;83.98;101387.28;6086888;23;20054;-73
2022/05/13 01:49:56;;;;;;;4.53;4.32;;;;;;;10.09;83.57;101384.75;6105843;23;20013;-76
2022/05/13 01:52:23;;;;;;;5.53;5.32;;;;;;;10.08;83.63;101384.81;6067769;23;20084;-74
2022/05/13 01:54:50;;;;;;;4.10;3.90;;;;;;;10.04;84.16;101383.22;6104101;23;20089;-73
2022/05/13 01:57:17;;;;;;;4.20;4.00;;;;;;;9.67;84.60;101330.47;6077004;23;20014;-72
2022/05/13 01:59:44;;;;;;;5.88;5.57;;;;;;;10.05;84.75;101385.81;6091530;23;20014;-73
2022/05/13 02:02:10;;;;;;;4.55;4.35;;;;;;;9.52;83.53;101296.97;6066994;23;20030;-74
2022/05/13 02:04:37;;;;;;;6.03;5.72;;;;;;;9.65;84.15;101310.47;6105099;23;20013;-74
2022/05/13 02:07:04;;;;;;;4.22;4.03;;;;;;;9.97;84.36;101380.00;6068015;23;20029;-75
2022/05/13 02:09:31;;;;;;;4.57;4.38;;;;;;;10.14;85.07;101390.69;6076101;23;20014;-74
2022/05/13 02:11:57;;;;;;;4.20;4.00;;;;;;;10.11;84.52;101392.59;6094911;23;20018;-73
2022/05/13 02:14:24;;;;;;;4.10;3.90;;;;;;;9.89;84.60;101356.69;6073888;23;20062;-75
2022/05/13 02:16:50;;;;;;;4.20;4.00;;;;;;;10.06;84.55;101386.66;6106691;23;20035;-74
2022/05/13 02:19:17;;;;;;;4.60;4.40;;;;;;;9.62;84.54;101324.53;6060572;23;20113;-73
2022/05/13 02:21:43;;;;;;;5.78;5.55;;;;;;;9.53;84.78;101315.25;6078727;23;20176;-73
2022/05/13 02:24:10;;;;;;;4.15;3.95;;;;;;;9.47;84.47;101302.38;6120726;23;20470;-72
2022/05/13 02:26:37;;;;;;;5.95;5.65;;;;;;;9.59;84.46;101345.63;6063649;23;20033;-75
2022/05/13 02:29:03;;;;;;;4.30;4.10;;;;;;;9.96;84.51;101392.28;6091797;23;20030;-74
2022/05/13 02:31:30;;;;;;;4.15;3.95;;;;;;;9.35;83.71;101305.47;6071492;23;20010;-74
2022/05/13 02:33:58;;;;;;;3.95;3.80;;;;;;;9.90;83.82;101389.00;6105977;18;20022;-74
2022/05/13 02:36:25;;;;;;;4.05;3.85;;;;;;;9.86;84.65;101393.53;6136264;23;20478;-75
2022/05/13 02:38:52;;;;;;;4.22;4.03;;;;;;;9.86;84.48;101388.28;6095000;23;20027;-74
2022/05/13 02:41:20;;;;;;;4.18;3.97;;;;;;;9.50;84.44;101338.97;6140276;23;20092;-74
2022/05/13 02:43:49;;;;;;;5.45;5.20;;;;;;;9.80;84.06;101391.13;6106947;23;20076;-74
2022/05/13 02:46:28;;;;;;;4.50;4.30;;;;;;;8.78;84.24;101229.03;6135869;23;20439;-73
2022/05/13 02:48:54;;;;;;;4.25;4.05;;;;;;;9.79;84.18;101397.28;6112931;23;20506;-74
2022/05/13 02:51:21;;;;;;;4.13;3.92;;;;;;;9.45;83.80;101346.13;6139047;23;20091;-74
2022/05/13 02:53:48;;;;;;;4.40;4.20;;;;;;;9.81;82.56;101392.00;6101723;23;20057;-74
2022/05/13 02:56:15;;;;;;;4.10;3.90;;;;;;;9.59;82.16;101367.44;6136850;23;20024;-74
2022/05/13 02:58:43;;;;;;;5.32;5.13;;;;;;;9.85;82.08;101401.44;6136420;23;20477;-72
2022/05/13 03:01:13;;;;;;;4.10;3.90;;;;;;;9.57;80.90;101364.00;6113340;23;20022;-74
2022/05/13 03:03:42;;;;;;;5.45;5.20;;;;;;;9.77;80.18;101393.88;6137264;23;20033;-74
2022/05/13 03:06:08;;;;;;;4.00;3.80;;;;;;;9.82;80.37;101405.03;6110991;23;20037;-73
2022/05/13 03:08:35;;;;;;;5.43;5.15;;;;;;;9.49;79.20;101360.81;6142346;23;20011;-73
2022/05/13 03:11:04;;;;;;;4.00;3.80;;;;;;;9.72;79.78;101391.44;6110940;23;20028;-75
2022/05/13 03:13:31;;;;;;;4.10;3.95;;;;;;;9.82;79.95;101407.66;6144964;23;20492;-73
2022/05/13 03:16:10;;;;;;;4.03;3.83;;;;;;;9.89;78.16;101405.66;6110829;23;20052;-75
2022/05/13 03:18:40;;;;;;;5.13;4.93;;;;;;;10.01;77.65;101406.97;6134370;23;20028;-75
2022/05/13 03:21:08;;;;;;;4.22;4.03;;;;;;;9.46;77.30;101340.00;6112289;23;20036;-73
2022/05/13 03:23:35;;;;;;;4.93;4.72;;;;;;;9.65;77.54;101355.03;6102510;23;20048;-73
2022/05/13 03:26:01;;;;;;;3.80;3.70;;;;;;;9.58;77.53;101363.13;6144719;23;20021;-75
2022/05/13 03:28:29;;;;;;;3.92;3.80;;;;;;;9.81;78.30;101392.00;6108148;23;20013;-74
2022/05/13 03:30:55;;;;;;;3.88;3.78;;;;;;;9.67;78.08;101372.38;6139758;23;20556;-75
2022/05/13 03:33:22;;;;;;;3.90;3.70;;;;;;;9.34;78.29;101325.59;6113245;23;20021;-74
2022/05/13 03:35:49;;;;;;;4.40;4.20;;;;;;;9.71;78.63;101396.72;6136011;23;20040;-73
2022/05/13 03:38:16;;;;;;;3.90;3.80;;;;;;;9.59;78.67;101385.78;6112009;23;20033;-73
2022/05/13 03:40:42;;;;;;;5.30;5.10;;;;;;;9.09;78.92;101330.84;6107352;23;20273;-74
2022/05/13 03:43:08;;;;;;;3.80;3.70;;;;;;;9.09;79.66;101337.84;6134101;23;20458;-73
2022/05/13 03:45:36;;;;;;;5.22;5.03;;;;;;;8.98;79.92;101330.41;6101294;23;20255;-74
2022/05/13 03:48:05;;;;;;;3.65;3.55;;;;;;;9.01;80.16;101325.03;6138508;23;20111;-73
2022/05/13 03:50:34;;;;;;;4.55;4.38;;;;;;;9.10;80.23;101334.31;6105422;23;20505;-76
2022/05/13 03:53:02;;;;;;;3.60;3.50;;;;;;;9.10;80.43;101353.53;6112329;23;20030;-75
2022/05/13 03:55:29;;;;;;;5.63;4.45;;;;;;;9.41;80.17;101394.31;6134367;23;20497;-72
2022/05/13 03:57:57;;;;;;;3.60;3.50;;;;;;;9.12;80.02;101342.97;6134547;23;20470;-74
2022/05/13 04:00:24;;;;;;;3.53;3.42;;;;;;;9.49;80.76;101408.00;6109381;23;20033;-74
2022/05/13 04:02:51;;;;;;;4.47;4.28;;;;;;;9.07;79.82;101316.09;6106721;23;20013;-73
2022/05/13 04:10:49;;;;;;;4.18;3.97;;;;;;;10.27;77.78;101398.94;6103377;23;20005;-73
2022/05/13 04:16:06;;;;;;;23.77;22.58;;;;;;;10.18;74.99;101329.34;6074789;23;20013;-73
2022/05/13 04:18:39;;;;;;;4.63;4.43;;;;;;;10.77;74.40;101385.53;5968533;23;20266;-72
2022/05/13 04:21:18;;;;;;;3.83;3.72;;;;;;;9.51;73.95;101180.84;6134478;23;20410;-72
2022/05/13 04:23:48;;;;;;;5.25;5.05;;;;;;;9.79;74.62;101245.25;6098240;23;20168;-74
2022/05/13 04:26:15;;;;;;;4.07;3.88;;;;;;;10.69;74.59;101408.63;6141331;23;20031;-73
2022/05/13 04:28:44;;;;;;;5.35;5.15;;;;;;;10.58;74.90;101406.47;6107143;23;20025;-73
2022/05/13 04:31:13;;;;;;;4.00;3.83;;;;;;;10.27;75.37;101359.56;6131741;23;20273;-72
2022/05/13 04:33:41;;;;;;;4.72;4.53;;;;;;;9.74;75.84;101290.00;6112951;23;20022;-72
2022/05/13 04:36:08;;;;;;;3.90;3.80;;;;;;;10.13;76.48;101365.38;6110112;23;20022;-72
2022/05/13 04:38:34;;;;;;;5.20;5.00;;;;;;;9.78;76.44;101328.28;6140040;23;20347;-73
2022/05/13 04:42:49;;;;;;;4.00;3.80;;;;;;;10.33;76.68;101406.59;6118573;23;20089;-72
2022/05/13 04:43:48;;;;;;;4.43;4.22;;;;;;;10.33;77.32;101405.75;6105569;23;20326;-73
2022/05/13 04:46:16;;;;;;;3.95;3.80;;;;;;;10.43;77.77;101435.09;6113169;23;20494;-72
2022/05/13 04:48:42;;;;;;;5.32;5.13;;;;;;;10.52;77.44;101430.34;6112431;23;20231;-72
2022/05/13 04:51:10;;;;;;;3.83;3.72;;;;;;;10.26;77.87;101378.84;6111896;23;20025;-73
2022/05/13 04:53:38;;;;;;;5.07;4.88;;;;;;;10.73;76.44;101436.47;6114250;23;20087;-73
2022/05/13 04:56:07;;;;;;;3.80;3.70;;;;;;;10.30;76.29;101343.75;6137991;23;20023;-73
2022/05/13 04:58:33;;;;;;;4.95;4.75;;;;;;;10.76;76.47;101435.47;6112847;23;20088;-75
2022/05/13 05:01:02;;;;;;;4.07;3.88;;;;;;;10.01;77.17;101316.03;6142327;23;20013;-73
2022/05/13 05:03:30;;;;;;;4.00;3.80;;;;;;;10.83;76.51;101429.06;6108702;23;20034;-73
2022/05/13 05:05:58;;;;;;;4.20;4.00;;;;;;;11.03;76.11;101430.88;6145150;23;20021;-74
2022/05/13 05:08:25;;;;;;;4.30;4.10;;;;;;;11.28;75.35;101428.03;6110485;23;20048;-72
2022/05/13 05:10:52;;;;;;;4.10;3.90;;;;;;;11.74;73.92;101438.28;6109090;23;20252;-73
2022/05/13 05:13:27;;;;;;;4.20;4.00;;;;;;;11.93;72.11;101433.94;6145425;23;20193;-74
2022/05/13 05:15:55;;;;;;;4.20;4.00;;;;;;;12.09;72.37;101449.00;6110360;23;20025;-75
2022/05/13 05:18:22;;;;;;;4.10;3.90;;;;;;;12.31;71.13;101414.66;6121362;23;20028;-74
2022/05/13 05:20:48;;;;;;;5.03;4.82;;;;;;;12.71;68.91;101445.16;6111409;23;20342;-73
2022/05/13 05:23:27;;;;;;;4.55;4.20;;;;;;;13.65;66.26;101456.22;6107111;23;20018;-73
2022/05/13 05:25:54;;;;;;;4.40;4.20;;;;;;;13.49;65.12;101457.94;6135238;23;20399;-74
2022/05/13 05:28:26;;;;;;;4.40;4.20;;;;;;;13.61;64.21;101457.31;6147757;23;20014;-74
2022/05/13 05:30:53;;;;;;;4.30;4.10;;;;;;;13.76;63.92;101443.31;6132620;23;20814;-74
2022/05/13 05:33:20;;;;;;;4.50;4.30;;;;;;;14.20;63.24;101462.94;6128025;23;20093;-72
2022/05/13 05:35:47;;;;;;;5.68;5.43;;;;;;;13.55;63.97;101447.94;6102364;23;20026;-74
2022/05/13 05:38:13;;;;;;;4.43;4.22;;;;;;;13.83;63.53;101451.75;6111380;23;20029;-74
2022/05/13 05:40:40;;;;;;;5.78;5.53;;;;;;;13.41;63.79;101421.47;6131778;23;20021;-74
2022/05/13 05:43:10;;;;;;;4.43;4.22;;;;;;;13.52;64.30;101471.81;6105374;23;20046;-73
2022/05/13 05:45:38;;;;;;;5.65;5.43;;;;;;;12.42;65.29;101362.31;6138961;23;20017;-71
2022/05/13 05:48:12;;;;;;;5.25;4.97;;;;;;;12.77;67.99;101471.19;6105127;23;20522;-72
2022/05/13 05:50:38;;;;;;;5.63;5.43;;;;;;;12.33;67.97;101387.31;6127481;23;20037;-72
2022/05/13 05:53:05;;;;;;;4.40;4.20;;;;;;;11.94;68.79;101324.31;6139508;23;20450;-73
2022/05/13 05:58:18;;;;;;;4.80;4.57;;;;;;;12.92;68.44;101481.91;6130659;23;20025;-71
2022/05/13 06:00:48;;;;;;;5.65;5.45;;;;;;;13.29;67.16;101486.22;6102836;23;20021;-73
2022/05/13 06:03:15;;;;;;;4.40;4.20;;;;;;;13.40;66.42;101485.66;6133129;23;20025;-71
2022/05/13 06:05:45;;;;;;;5.53;5.32;;;;;;;13.18;65.57;101422.59;6108274;23;20359;-71
2022/05/13 06:08:11;;;;;;;4.50;4.30;;;;;;;13.00;65.11;101421.75;6102621;23;20016;-72
2022/05/13 06:10:38;;;;;;;5.75;5.45;;;;;;;13.58;65.55;101497.03;6106241;23;20014;-74
2022/05/13 06:13:05;;;;;;;4.45;4.25;;;;;;;13.66;65.33;101500.13;6110563;23;20032;-72
2022/05/13 06:15:32;;;;;;;4.93;4.68;;;;;;;13.98;64.14;101496.72;6134696;23;20036;-76
2022/05/13 06:17:58;;;;;;;4.40;4.20;;;;;;;13.98;64.28;101491.44;6136432;23;20029;-74
2022/05/13 06:20:30;;;;;;;4.50;4.30;;;;;;;13.09;62.62;101321.16;6106368;23;20032;-74
2022/05/13 06:22:57;;;;;;;4.30;4.10;;;;;;;14.64;61.62;101493.13;6133167;23;20638;-72
2022/05/13 06:25:25;;;;;;;4.30;4.10;;;;;;;14.18;61.10;101485.94;6128019;23;20020;-72
2022/05/13 06:27:53;;;;;;;4.50;4.30;;;;;;;14.26;61.91;101462.59;6107801;23;20021;-72
2022/05/13 06:30:31;;;;;;;4.50;4.30;;;;;;;13.11;61.51;101256.06;6117718;23;20036;-73
2022/05/13 06:32:58;;;;;;;4.60;4.40;;;;;;;14.57;60.88;101503.16;6105264;23;20036;-71
2022/05/13 06:35:26;;;;;;;4.40;4.20;;;;;;;14.79;61.50;101507.25;6127092;23;20020;-73
2022/05/13 06:37:53;;;;;;;4.50;4.30;;;;;;;14.04;60.47;101336.25;6108895;23;20037;-72
2022/05/13 06:40:22;;;;;;;4.53;4.32;;;;;;;15.03;59.66;101508.47;6106667;23;20092;-73
2022/05/13 06:42:50;;;;;;;5.10;4.90;;;;;;;13.41;60.65;101313.34;6137463;23;20485;-71
2022/05/13 06:45:17;;;;;;;16.90;4.53;;;;;;;13.83;60.35;101348.84;6108120;23;20052;-73
2022/05/13 06:47:44;;;;;;;5.63;5.40;;;;;;;14.71;60.80;101447.78;6128599;23;20017;-73
2022/05/13 06:50:16;;;;;;;4.20;4.00;;;;;;;14.60;58.93;101439.59;6112533;23;20032;-73
2022/05/13 06:52:43;;;;;;;5.50;5.30;;;;;;;14.83;59.63;101462.03;6106457;23;20060;-71
2022/05/13 06:55:12;;;;;;;4.45;4.25;;;;;;;15.18;58.72;101521.75;6135494;23;20032;-74
2022/05/13 06:57:39;;;;;;;5.88;5.57;;;;;;;15.01;58.19;101451.34;6107999;23;20486;-73
2022/05/13 07:00:09;;;;;;;4.65;4.45;;;;;;;15.19;57.32;101452.06;6108871;23;20021;-73
2022/05/13 07:02:36;;;;;;;4.90;4.70;;;;;;;15.40;56.31;101514.25;6133392;23;20020;-71
2022/05/13 07:05:03;;;;;;;4.80;4.60;;;;;;;15.44;58.58;101520.22;6131932;23;20017;-73
2022/05/13 07:07:29;;;;;;;4.55;4.35;;;;;;;15.41;58.23;101518.59;6135080;23;20020;-73
2022/05/13 07:09:56;;;;;;;4.40;4.20;;;;;;;15.32;57.15;101512.06;6111135;23;20156;-73
2022/05/13 07:12:22;;;;;;;4.70;4.50;;;;;;;15.24;57.70;101524.03;6157514;23;20062;-71
2022/05/13 07:14:49;;;;;;;4.30;4.10;;;;;;;15.24;56.89;101501.09;6112610;23;20031;-73
2022/05/13 07:17:16;;;;;;;4.70;4.50;;;;;;;15.37;57.02;101530.28;6137452;23;20161;-71
2022/05/13 07:19:42;;;;;;;5.82;5.57;;;;;;;15.60;57.49;101542.16;6103335;23;20415;-72
2022/05/13 07:22:09;;;;;;;4.72;4.53;;;;;;;15.70;54.23;101458.63;6111774;23;20046;-72
2022/05/13 07:24:35;;;;;;;5.18;4.97;;;;;;;16.14;52.40;101539.78;6101973;23;20014;-73
2022/05/13 07:27:02;;;;;;;4.60;4.40;;;;;;;15.59;52.24;101444.34;6111514;23;20054;-73
2022/05/13 07:29:30;;;;;;;4.60;4.40;;;;;;;16.26;53.48;101540.81;6129710;23;20044;-71
2022/05/13 07:31:56;;;;;;;4.65;4.45;;;;;;;16.18;52.17;101534.25;6112407;23;20161;-71
2022/05/13 07:34:23;;;;;;;4.57;4.38;;;;;;;16.43;52.00;101515.03;6130933;23;20262;-73
2022/05/13 07:36:53;;;;;;;5.20;5.00;;;;;;;16.34;52.88;101543.81;6104284;23;20014;-73
2022/05/13 07:42:08;;;;;;;4.63;4.43;;;;;;;15.91;52.21;101496.16;6105651;23;20043;-71
2022/05/13 07:44:35;;;;;;;6.32;6.03;;;;;;;15.86;53.30;101453.28;6156426;17;20498;-73
2022/05/13 07:47:04;;;;;;;4.93;4.72;;;;;;;16.72;52.32;101548.47;6106485;23;20048;-74
2022/05/13 07:49:30;;;;;;;4.85;4.65;;;;;;;16.83;51.06;101560.22;6126538;23;20021;-72
2022/05/13 07:51:57;;;;;;;4.97;4.78;;;;;;;16.51;51.54;101507.44;6099650;23;20029;-71
2022/05/13 07:54:23;;;;;;;5.10;4.80;;;;;;;16.12;51.75;101528.44;6102301;23;20368;-73
2022/05/13 07:56:50;;;;;;;4.85;4.65;;;;;;;15.62;51.66;101423.00;6072957;23;20187;-74
2022/05/13 07:59:16;;;;;;;4.78;4.50;;;;;;;16.46;51.46;101567.84;6097718;23;20034;-72
2022/05/13 08:01:42;;;;;;;6.13;5.82;;;;;;;16.13;53.62;101566.34;6076380;23;20046;-72
2022/05/13 08:04:11;;;;;;;4.50;4.30;;;;;;;16.50;51.75;101566.72;6104895;23;20018;-71
2022/05/13 08:06:39;;;;;;;6.07;5.78;;;;;;;16.08;51.42;101505.72;6075529;23;20017;-74
2022/05/13 08:09:05;;;;;;;4.60;4.40;;;;;;;16.80;51.62;101555.94;6107610;23;20024;-73
2022/05/13 08:11:32;;;;;;;5.70;5.40;;;;;;;16.63;51.93;101495.22;6086791;23;20068;-72
2022/05/13 08:14:04;;;;;;;;;;;;;;;17.25;50.72;101558.34;6082106;23;20017;-73
2022/05/13 08:16:33;;;;;;;5.03;4.82;;;;;;;15.78;49.94;101364.72;6098235;23;20080;-71
2022/05/13 08:19:00;;;;;;;4.60;4.40;;;;;;;16.62;50.63;101565.94;6082241;23;20021;-73
2022/05/13 08:21:26;;;;;;;6.40;5.82;;;;;;;16.29;52.82;101572.38;6102457;23;20018;-70
2022/05/13 08:23:53;;;;;;;5.13;4.90;;;;;;;16.65;52.58;101554.25;6106045;23;20022;-73
2022/05/13 08:26:19;;;;;;;5.00;4.80;;;;;;;16.94;52.42;101582.44;6093573;23;20340;-73
2022/05/13 08:28:46;;;;;;;6.05;5.75;;;;;;;16.87;51.54;101569.66;6102894;23;20030;-75
2022/05/13 08:31:14;;;;;;;4.78;4.57;;;;;;;16.92;51.67;101533.13;6108881;23;20506;-72
2022/05/13 08:33:42;;;;;;;6.15;5.85;;;;;;;17.28;50.33;101571.38;6071231;23;20414;-73
2022/05/13 08:36:13;;;;;;;5.75;5.45;;;;;;;17.07;50.61;101581.63;6089191;23;20133;-70
2022/05/13 08:38:40;;;;;;;5.85;5.57;;;;;;;17.02;51.54;101573.13;6080764;23;20032;-71
2022/05/13 08:41:07;;;;;;;4.53;4.32;;;;;;;17.28;51.37;101566.09;6103003;23;20021;-73
2022/05/13 08:43:46;;;;;;;5.75;5.47;;;;;;;17.51;49.95;101568.06;6078876;23;20076;-72
2022/05/13 08:46:13;;;;;;;4.60;4.40;;;;;;;17.42;49.82;101574.00;6080488;23;20239;-73
2022/05/13 08:48:51;;;;;;;6.25;5.95;;;;;;;17.20;48.92;101576.34;6094179;23;20005;-71
2022/05/13 08:51:45;;;;;;;4.85;4.65;;;;;;;17.38;49.58;101567.19;6074071;23;20443;-73
2022/05/13 08:54:26;;;;;;;4.70;4.50;;;;;;;17.54;50.40;101577.63;6076832;23;20618;-72
2022/05/13 08:56:56;;;;;;;4.80;4.60;;;;;;;17.87;49.08;101582.47;6103160;23;20259;-73
2022/05/13 08:59:42;;;;;;;6.03;5.72;;;;;;;17.41;49.08;101558.16;6069734;23;20323;-72
2022/05/13 09:02:20;;;;;;;4.80;4.60;;;;;;;17.54;49.28;101525.41;6079933;23;20273;-72
2022/05/13 09:04:59;;;;;;;6.53;6.22;;;;;;;17.50;48.36;101562.84;6096628;23;20010;-72
2022/05/13 09:07:27;;;;;;;4.70;4.50;;;;;;;17.78;48.69;101545.91;6084083;23;20006;-72
2022/05/13 09:09:59;;;;;;;4.85;4.65;;;;;;;18.39;47.54;101582.44;6115521;23;20081;-73
2022/05/13 09:13:04;;;;;;;4.72;4.53;;;;;;;17.97;47.88;101581.84;6085236;23;20014;-74
2022/05/13 09:15:39;;;;;;;4.80;4.60;;;;;;;17.35;49.27;101580.66;6077820;23;20385;-72
2022/05/13 09:18:17;;;;;;;4.78;4.57;;;;;;;17.79;49.26;101581.25;6129595;23;20166;-71
2022/05/13 09:20:48;;;;;;;6.38;6.07;;;;;;;17.90;48.78;101584.91;6073936;23;20397;-71
2022/05/13 09:23:15;;;;;;;4.70;4.50;;;;;;;18.17;47.93;101581.28;6079297;23;20557;-72
2022/05/13 09:26:01;;;;;;;5.93;5.63;;;;;;;17.38;48.32;101421.25;6083365;23;20341;-72
2022/05/13 09:28:30;;;;;;;4.90;4.70;;;;;;;17.39;47.04;101438.03;6086408;23;20018;-70
2022/05/13 09:31:15;;;;;;;5.00;4.80;;;;;;;17.78;48.19;101576.91;6082400;23;20138;-70
2022/05/13 09:33:46;;;;;;;6.40;6.10;;;;;;;18.66;46.52;101588.44;6074233;23;20014;-71
2022/05/13 09:36:16;;;;;;;4.70;4.50;;;;;;;18.01;47.69;101586.81;6115118;23;20030;-74
2022/05/13 09:38:46;;;;;;;5.82;5.55;;;;;;;18.77;46.16;101581.50;6092161;23;20009;-70
2022/05/13 09:41:22;;;;;;;4.80;4.60;;;;;;;18.09;46.27;101523.38;6082913;23;20471;-74
2022/05/13 09:43:54;;;;;;;5.65;5.45;;;;;;;18.62;44.67;101576.31;6081506;23;20116;-72
2022/05/13 09:46:30;;;;;;;5.22;4.72;;;;;;;18.14;46.67;101584.16;6100357;23;20040;-74
2022/05/13 09:49:03;;;;;;;4.80;4.60;;;;;;;18.51;46.43;101585.06;6060045;23;20007;-72
2022/05/13 09:51:37;;;;;;;4.90;4.70;;;;;;;18.25;45.50;101578.09;6107208;23;20460;-70
2022/05/13 09:54:07;;;;;;;5.15;4.85;;;;;;;18.68;43.58;101583.84;6093396;23;20324;-71
2022/05/13 09:57:07;;;;;;;5.85;5.55;;;;;;;18.81;42.63;101580.34;6102839;23;20020;-74
2022/05/13 09:59:38;;;;;;;5.70;5.40;;;;;;;19.35;42.27;101582.53;6031304;23;20022;-70
2022/05/13 10:02:19;;;;;;;4.82;4.63;;;;;;;19.57;43.27;101586.22;6119697;23;20032;-70
2022/05/13 10:04:55;;;;;;;7.03;6.35;;;;;;;19.07;41.98;101504.75;6082771;23;20081;-71
2022/05/13 10:07:24;;;;;;;5.20;5.00;;;;;;;19.02;42.70;101585.88;6082001;23;20030;-72
2022/05/13 10:15:35;;;;;;;4.82;4.63;;;;;;;18.91;41.00;101579.53;6100193;23;20014;-73
2022/05/13 10:18:12;;;;;;;4.68;4.47;;;;;;;19.40;40.12;101585.66;6070279;23;20026;-70
2022/05/13 10:20:41;;;;;;;6.38;6.07;;;;;;;19.56;38.55;101540.09;6089206;23;20029;-75
2022/05/13 10:23:11;;;;;;;4.80;4.60;;;;;;;19.75;38.24;101563.53;6065279;23;20096;-72
2022/05/13 10:26:12;;;;;;;6.78;6.47;;;;;;;20.49;37.33;101590.56;6098452;23;20052;-71
2022/05/13 10:28:52;;;;;;;6.50;6.20;;;;;;;19.80;39.69;101577.34;6061639;23;20732;-73
2022/05/13 10:31:21;;;;;;;5.10;4.80;;;;;;;19.56;40.34;101572.03;6079759;23;20197;-72
2022/05/13 10:34:01;;;;;;;5.95;5.65;;;;;;;19.84;39.76;101589.44;6066884;23;20366;-71
2022/05/13 10:36:54;;;;;;;5.78;5.47;;;;;;;18.84;39.97;101385.94;6077603;23;20018;-72
2022/05/13 10:39:27;;;;;;;4.97;4.78;;;;;;;18.60;39.10;101399.25;6110384;23;20035;-72
2022/05/13 10:42:05;;;;;;;5.05;4.85;;;;;;;19.58;38.25;101550.63;6061201;23;20468;-73
2022/05/13 10:44:50;;;;;;;5.78;5.38;;;;;;;19.93;38.17;101579.91;6064440;23;20266;-72
2022/05/13 10:47:29;;;;;;;4.80;4.60;;;;;;;19.85;38.08;101588.50;6076792;23;20025;-72
2022/05/13 10:49:55;;;;;;;4.90;4.70;;;;;;;20.40;38.35;101585.97;6070958;23;20022;-73
2022/05/13 10:52:43;;;;;;;5.20;5.00;;;;;;;19.97;37.66;101575.19;6094742;23;20426;-72
2022/05/13 10:55:38;;;;;;;5.15;4.95;;;;;;;19.28;38.23;101514.75;6073216;23;20474;-71
2022/05/13 10:58:07;;;;;;;5.20;5.00;;;;;;;19.92;38.01;101581.75;6075673;23;20038;-73
2022/05/13 11:00:51;;;;;;;6.30;6.00;;;;;;;20.13;38.82;101584.53;6092822;23;20022;-75
2022/05/13 11:03:49;;;;;;;5.03;4.82;;;;;;;20.81;37.25;101589.84;6065301;23;20017;-71
2022/05/13 11:06:42;;;;;;;5.05;4.85;;;;;;;20.62;37.21;101571.78;6091738;23;20076;-72
2022/05/13 11:09:37;;;;;;;5.05;4.85;;;;;;;21.06;36.28;101508.59;6060761;23;20045;-72
2022/05/13 11:12:10;;;;;;;4.93;4.72;;;;;;;20.67;37.42;101593.63;6109541;23;20014;-72
2022/05/13 11:14:55;;;;;;;;;;;;;;;20.87;37.01;101588.50;6075804;23;20423;-75
2022/05/13 11:17:27;;;;;;;5.10;4.90;;;;;;;20.84;36.81;101575.38;6102023;23;20521;-73
2022/05/13 11:20:11;;;;;;;5.40;5.20;;;;;;;21.56;35.93;101580.09;6076277;23;20084;-71
2022/05/13 11:22:46;;;;;;;6.40;6.10;;;;;;;21.49;36.23;101582.44;6062775;23;20119;-75
2022/05/13 11:25:57;;;;;;;4.97;4.78;;;;;;;21.47;35.85;101589.75;6104516;23;20300;-72
2022/05/13 11:28:43;;;;;;;5.10;4.85;;;;;;;20.24;38.20;101581.00;6072467;23;20014;-73
2022/05/13 11:31:31;;;;;;;5.00;4.80;;;;;;;20.18;38.75;101585.97;6090155;23;20021;-72
2022/05/13 11:34:18;;;;;;;5.10;4.90;;;;;;;20.76;38.17;101589.34;6065079;23;20030;-71
2022/05/13 11:37:02;;;;;;;5.30;4.90;;;;;;;20.67;37.87;101569.59;6107717;23;20093;-72
2022/05/13 11:39:57;;;;;;;5.10;4.90;;;;;;;21.26;37.31;101584.31;6081261;23;20336;-72
2022/05/13 11:43:20;;;;;;;5.35;4.90;;;;;;;21.33;36.99;101574.00;6073063;23;20047;-72
2022/05/13 11:46:01;;;;;;;5.00;4.80;;;;;;;21.07;38.20;101584.19;6101745;23;20096;-71
2022/05/13 11:48:35;;;;;;;5.22;4.93;;;;;;;20.94;38.34;101591.50;6068899;23;20462;-72
2022/05/13 11:51:11;;;;;;;5.10;4.90;;;;;;;21.06;37.84;101580.66;6105831;23;20214;-73
2022/05/13 11:53:44;;;;;;;5.30;5.10;;;;;;;20.96;37.47;101587.72;6073795;23;20037;-71
2022/05/13 11:56:31;;;;;;;4.78;4.57;;;;;;;20.13;39.14;101586.34;6097975;23;20050;-73
2022/05/13 11:58:58;;;;;;;4.90;4.70;;;;;;;20.50;38.27;101580.75;6064183;23;21140;-71
2022/05/13 12:01:36;;;;;;;5.28;5.05;;;;;;;20.65;38.10;101582.22;6079582;23;20025;-71
2022/05/13 12:04:16;;;;;;;4.82;4.63;;;;;;;20.81;39.14;101581.00;6082913;23;20108;-73
2022/05/13 12:07:25;;;;;;;6.25;5.95;;;;;;;20.78;38.58;101586.56;6076048;23;20148;-73